createdAt,value
2023-04-28T07:35:15.754Z,33.04
2023-04-28T07:35:27.111Z,32.85
2023-04-28T07:35:38.706Z,32.66
2023-04-28T07:35:50.029Z,32.57
2023-04-28T07:36:01.731Z,32.54
2023-04-28T07:36:11.760Z,32.49
2023-04-28T07:36:23.340Z,32.50
2023-04-28T07:36:34.666Z,32.49
2023-04-28T07:36:46.365Z,32.49
2023-04-28T07:36:57.683Z,32.47
2023-04-28T07:37:09.266Z,32.46
2023-04-28T07:37:20.576Z,32.45
2023-04-28T07:37:33.192Z,32.43
2023-04-28T07:37:42.440Z,32.40
2023-04-28T07:37:54.016Z,32.40
2023-04-28T07:38:05.347Z,32.39
2023-04-28T07:38:16.928Z,32.40
2023-04-28T07:38:28.263Z,32.38
2023-04-28T07:38:39.859Z,32.40
2023-04-28T07:38:51.180Z,32.38
2023-04-28T07:39:02.766Z,32.38
2023-04-28T07:39:14.085Z,32.38
2023-04-28T07:39:25.668Z,32.35
2023-04-28T07:39:36.991Z,32.37
2023-04-28T07:39:48.563Z,32.36
2023-04-28T07:39:59.922Z,32.35
2023-04-28T07:40:11.517Z,32.36
2023-04-28T07:40:22.969Z,32.34
2023-04-28T07:40:34.616Z,32.33
2023-04-28T07:40:46.008Z,32.34
2023-04-28T07:40:57.923Z,32.36
2023-04-28T07:41:11.046Z,32.34
2023-04-28T07:41:20.668Z,32.38
2023-04-28T07:41:32.340Z,32.35
2023-04-28T07:41:43.672Z,32.35
2023-04-28T07:41:55.265Z,32.32
2023-04-28T07:42:06.595Z,32.34
2023-04-28T07:42:18.179Z,32.34
2023-04-28T07:42:29.524Z,32.34
2023-04-28T07:42:41.111Z,32.32
2023-04-28T07:42:52.440Z,32.32
2023-04-28T07:43:04.073Z,32.32
2023-04-28T07:43:15.384Z,32.31
2023-04-28T07:43:26.996Z,32.32
2023-04-28T07:43:38.332Z,32.29
2023-04-28T07:43:49.935Z,32.30
2023-04-28T07:44:01.270Z,32.32
2023-04-28T07:44:12.905Z,32.28
2023-04-28T07:44:24.200Z,32.31
2023-04-28T07:44:35.800Z,32.30
2023-04-28T07:44:47.114Z,32.30
2023-04-28T07:44:58.709Z,32.31
2023-04-28T07:45:10.026Z,32.30
2023-04-28T07:45:21.600Z,32.29
2023-04-28T07:45:33.002Z,32.29
2023-04-28T07:45:44.662Z,32.30
2023-04-28T07:45:56.025Z,32.29
2023-04-28T07:46:07.649Z,32.30
2023-04-28T07:46:19.019Z,32.31
2023-04-28T07:46:30.756Z,32.31
2023-04-28T07:46:42.143Z,32.30
2023-04-28T07:46:53.745Z,32.29
2023-04-28T07:47:05.092Z,32.31
2023-04-28T07:47:16.672Z,32.30
2023-04-28T07:47:28.003Z,32.28
2023-04-28T07:47:39.605Z,32.28
2023-04-28T07:47:50.975Z,32.29
2023-04-28T07:48:02.615Z,32.28
2023-04-28T07:48:13.995Z,32.30
2023-04-28T07:48:25.584Z,32.29
2023-04-28T07:48:36.916Z,32.28
2023-04-28T07:48:48.502Z,32.28
2023-04-28T07:48:59.827Z,32.30
2023-04-28T07:49:11.420Z,32.29
2023-04-28T07:49:22.756Z,32.29
2023-04-28T07:49:34.355Z,32.27
2023-04-28T07:49:45.669Z,32.27
2023-04-28T07:49:57.275Z,32.29
2023-04-28T07:50:08.592Z,32.28
2023-04-28T07:50:20.237Z,32.26
2023-04-28T07:50:31.531Z,32.29
2023-04-28T07:50:43.131Z,32.27
2023-04-28T07:50:54.507Z,32.29
2023-04-28T07:51:06.147Z,32.27
2023-04-28T07:51:17.452Z,32.28
2023-04-28T07:51:29.044Z,32.27
2023-04-28T07:51:40.376Z,32.27
2023-04-28T07:51:51.955Z,32.27
2023-04-28T07:52:03.269Z,32.27
2023-04-28T07:52:14.901Z,32.28
2023-04-28T07:52:26.200Z,32.27
2023-04-28T07:52:37.793Z,32.25
2023-04-28T07:52:49.110Z,32.25
2023-04-28T07:53:00.719Z,32.28
2023-04-28T07:53:12.048Z,32.27
2023-04-28T07:53:23.619Z,32.27
2023-04-28T07:53:34.937Z,32.28
2023-04-28T07:53:46.510Z,32.27
2023-04-28T07:53:57.832Z,32.27
2023-04-28T07:54:09.400Z,32.25
2023-04-28T07:54:20.725Z,32.26
2023-04-28T07:54:32.340Z,32.25
2023-04-28T07:54:43.662Z,32.27
2023-04-28T07:54:55.238Z,32.28
2023-04-28T07:55:06.561Z,32.26
2023-04-28T07:55:18.156Z,32.27
2023-04-28T07:55:29.476Z,32.27
2023-04-28T07:55:41.079Z,32.26
2023-04-28T07:55:52.391Z,32.28
2023-04-28T07:56:04.006Z,32.28
2023-04-28T07:56:15.323Z,32.26
2023-04-28T07:56:26.914Z,32.25
2023-04-28T07:56:38.241Z,32.26
2023-04-28T07:56:49.845Z,32.25
2023-04-28T07:57:01.168Z,32.26
2023-04-28T07:57:12.763Z,32.23
2023-04-28T07:57:24.092Z,32.27
2023-04-28T07:57:35.681Z,32.26
2023-04-28T07:57:47.000Z,32.25
2023-04-28T07:57:58.569Z,32.24
2023-04-28T07:58:09.910Z,32.25
2023-04-28T07:58:21.497Z,32.25
2023-04-28T07:58:32.839Z,32.25
2023-04-28T07:58:44.413Z,32.23
2023-04-28T07:58:55.736Z,32.25
2023-04-28T07:59:07.311Z,32.25
2023-04-28T07:59:18.636Z,32.24
2023-04-28T07:59:30.206Z,32.24
2023-04-28T07:59:41.547Z,32.23
2023-04-28T07:59:53.141Z,32.25
2023-04-28T08:00:04.487Z,32.23
2023-04-28T08:00:16.073Z,32.25
2023-04-28T08:00:27.401Z,32.24
2023-04-28T08:00:40.944Z,32.24
2023-04-28T08:00:50.361Z,32.24
2023-04-28T08:01:01.975Z,32.25
2023-04-28T08:01:13.315Z,32.23
2023-04-28T08:01:24.929Z,32.22
2023-04-28T08:01:36.270Z,32.23
2023-04-28T08:01:47.877Z,32.22
2023-04-28T08:01:59.268Z,32.25
2023-04-28T08:02:10.830Z,32.23
2023-04-28T08:02:22.284Z,32.23
2023-04-28T08:02:34.007Z,32.23
2023-04-28T08:02:45.528Z,32.24
2023-04-28T08:02:57.287Z,32.23
2023-04-28T08:03:08.828Z,32.24
2023-04-28T08:03:20.832Z,32.25
2023-04-28T08:03:32.941Z,32.22
2023-04-28T08:03:44.848Z,32.19
2023-04-28T08:03:56.418Z,32.20
2023-04-28T08:04:08.450Z,32.22
2023-04-28T08:04:20.840Z,32.19
2023-04-28T08:04:30.395Z,32.17
2023-04-28T08:04:42.213Z,32.22
2023-04-28T08:04:53.890Z,32.22
2023-04-28T08:05:05.900Z,32.23
2023-04-28T08:05:17.583Z,32.24
2023-04-28T08:05:29.446Z,32.23
2023-04-28T08:05:40.864Z,32.21
2023-04-28T08:05:52.483Z,32.20
2023-04-28T08:06:03.834Z,32.21
2023-04-28T08:06:15.493Z,32.19
2023-04-28T08:06:26.848Z,32.22
2023-04-28T08:06:38.442Z,32.23
2023-04-28T08:06:49.766Z,32.22
2023-04-28T08:07:01.341Z,32.19
2023-04-28T08:07:12.745Z,32.21
2023-04-28T08:07:24.336Z,32.21
2023-04-28T08:07:35.660Z,32.21
2023-04-28T08:07:47.247Z,32.20
2023-04-28T08:07:58.606Z,32.18
2023-04-28T08:08:10.202Z,32.22
2023-04-28T08:08:21.527Z,32.18
2023-04-28T08:08:33.120Z,32.19
2023-04-28T08:08:44.452Z,32.19
2023-04-28T08:08:56.062Z,32.19
2023-04-28T08:09:07.406Z,32.21
2023-04-28T08:09:19.007Z,32.21
2023-04-28T08:09:30.345Z,32.19
2023-04-28T08:09:41.932Z,32.20
2023-04-28T08:09:53.809Z,32.18
2023-04-28T08:10:05.529Z,32.21
2023-04-28T08:10:16.872Z,32.21
2023-04-28T08:10:28.453Z,32.18
2023-04-28T08:10:39.760Z,32.17
2023-04-28T08:10:51.356Z,32.18
2023-04-28T08:11:02.674Z,32.19
2023-04-28T08:11:14.278Z,32.18
2023-04-28T08:11:25.608Z,32.18
2023-04-28T08:11:37.209Z,32.18
2023-04-28T08:11:48.540Z,32.18
2023-04-28T08:12:00.122Z,32.18
2023-04-28T08:12:11.488Z,32.18
2023-04-28T08:12:23.049Z,32.18
2023-04-28T08:12:34.378Z,32.18
2023-04-28T08:12:45.986Z,32.17
2023-04-28T08:12:57.340Z,32.16
2023-04-28T08:13:08.955Z,32.17
2023-04-28T08:13:20.273Z,32.18
2023-04-28T08:13:31.869Z,32.18
2023-04-28T08:13:43.201Z,32.16
2023-04-28T08:13:54.777Z,32.17
2023-04-28T08:14:06.102Z,32.16
2023-04-28T08:14:18.067Z,32.16
2023-04-28T08:14:29.824Z,32.13
2023-04-28T08:14:41.206Z,32.16
2023-04-28T08:14:52.803Z,32.16
2023-04-28T08:15:04.128Z,32.17
2023-04-28T08:15:16.714Z,32.15
2023-04-28T08:15:27.563Z,32.18
2023-04-28T08:15:39.154Z,32.16
2023-04-28T08:15:50.484Z,32.17
2023-04-28T08:16:02.076Z,32.16
2023-04-28T08:16:13.502Z,32.16
2023-04-28T08:16:25.215Z,32.16
2023-04-28T08:16:36.656Z,32.15
2023-04-28T08:16:48.247Z,32.14
2023-04-28T08:16:59.571Z,32.18
2023-04-28T08:17:11.182Z,32.16
2023-04-28T08:17:22.541Z,32.16
2023-04-28T08:17:34.205Z,32.16
2023-04-28T08:17:45.632Z,32.16
2023-04-28T08:17:57.227Z,32.14
2023-04-28T08:18:08.622Z,32.15
2023-04-28T08:18:20.232Z,32.15
2023-04-28T08:18:31.590Z,32.16
2023-04-28T08:18:43.219Z,32.14
2023-04-28T08:18:54.597Z,32.15
2023-04-28T08:19:06.210Z,32.15
2023-04-28T08:19:17.535Z,32.14
2023-04-28T08:19:29.145Z,32.14
2023-04-28T08:19:40.472Z,32.15
2023-04-28T08:19:52.075Z,32.14
2023-04-28T08:20:03.395Z,32.16
2023-04-28T08:20:14.995Z,32.16
2023-04-28T08:20:26.377Z,32.15
2023-04-28T08:20:38.231Z,32.12
2023-04-28T08:20:49.527Z,32.12
2023-04-28T08:21:01.118Z,32.15
2023-04-28T08:21:12.419Z,32.14
2023-04-28T08:21:23.994Z,32.13
2023-04-28T08:21:35.328Z,32.14
2023-04-28T08:21:46.917Z,32.13
2023-04-28T08:21:58.236Z,32.13
2023-04-28T08:22:09.810Z,32.14
2023-04-28T08:22:21.138Z,32.12
2023-04-28T08:22:32.735Z,32.13
2023-04-28T08:22:44.150Z,32.12
2023-04-28T08:22:55.720Z,32.12
2023-04-28T08:23:07.049Z,32.13
2023-04-28T08:23:18.647Z,32.13
2023-04-28T08:23:29.942Z,32.11
2023-04-28T08:23:41.510Z,32.11
2023-04-28T08:23:52.917Z,32.11
2023-04-28T08:24:04.498Z,32.11
2023-04-28T08:24:16.037Z,32.11
2023-04-28T08:24:27.793Z,32.11
2023-04-28T08:24:39.129Z,32.10
2023-04-28T08:24:50.732Z,32.12
2023-04-28T08:25:02.086Z,32.12
2023-04-28T08:25:13.644Z,32.11
2023-04-28T08:25:24.995Z,32.09
2023-04-28T08:25:36.625Z,32.10
2023-04-28T08:25:47.946Z,32.11
2023-04-28T08:25:59.569Z,32.09
2023-04-28T08:26:10.908Z,32.11
2023-04-28T08:26:22.483Z,32.11
2023-04-28T08:26:33.819Z,32.09
2023-04-28T08:26:45.399Z,32.12
2023-04-28T08:26:56.736Z,32.11
2023-04-28T08:27:08.312Z,32.10
2023-04-28T08:27:19.627Z,32.10
2023-04-28T08:27:31.228Z,32.09
2023-04-28T08:27:42.553Z,32.10
2023-04-28T08:27:56.474Z,32.09
2023-04-28T08:28:06.233Z,32.11
2023-04-28T08:28:17.873Z,32.09
2023-04-28T08:28:29.209Z,32.11
2023-04-28T08:28:40.797Z,32.10
2023-04-28T08:28:52.137Z,32.08
2023-04-28T08:29:03.717Z,32.10
2023-04-28T08:29:15.039Z,32.07
2023-04-28T08:29:26.648Z,32.06
2023-04-28T08:29:38.052Z,32.09
2023-04-28T08:29:49.613Z,32.08
2023-04-28T08:30:00.949Z,32.08
2023-04-28T08:30:12.524Z,32.09
2023-04-28T08:30:23.864Z,32.09
2023-04-28T08:30:35.484Z,32.09
2023-04-28T08:30:46.857Z,32.11
2023-04-28T08:30:58.498Z,32.08
2023-04-28T08:31:09.838Z,32.10
2023-04-28T08:31:21.444Z,32.08
2023-04-28T08:31:32.811Z,32.08
2023-04-28T08:31:44.433Z,32.07
2023-04-28T08:31:55.829Z,32.07
2023-04-28T08:32:07.412Z,32.07
2023-04-28T08:32:18.724Z,32.08
2023-04-28T08:32:30.347Z,32.07
2023-04-28T08:32:41.680Z,32.07
2023-04-28T08:32:53.382Z,32.08
2023-04-28T08:33:05.728Z,32.07
2023-04-28T08:33:16.467Z,32.14
2023-04-28T08:33:28.044Z,32.08
2023-04-28T08:33:39.364Z,32.08
2023-04-28T08:33:50.966Z,32.07
2023-04-28T08:34:02.312Z,32.07
2023-04-28T08:34:15.917Z,32.08
2023-04-28T08:34:25.850Z,32.08
2023-04-28T08:34:37.472Z,32.05
2023-04-28T08:34:48.800Z,32.06
2023-04-28T08:35:00.391Z,32.05
2023-04-28T08:35:11.703Z,32.05
2023-04-28T08:35:23.325Z,32.07
2023-04-28T08:35:34.648Z,32.06
2023-04-28T08:35:46.278Z,32.05
2023-04-28T08:35:57.613Z,32.06
2023-04-28T08:36:09.208Z,32.04
2023-04-28T08:36:20.563Z,32.03
2023-04-28T08:36:32.126Z,32.05
2023-04-28T08:36:43.446Z,32.06
2023-04-28T08:36:55.033Z,32.03
2023-04-28T08:37:06.378Z,32.05
2023-04-28T08:37:17.978Z,32.04
2023-04-28T08:37:29.354Z,32.05
2023-04-28T08:37:40.945Z,32.04
2023-04-28T08:37:52.268Z,32.04
2023-04-28T08:38:03.873Z,32.04
2023-04-28T08:38:15.231Z,32.05
2023-04-28T08:38:26.844Z,32.04
2023-04-28T08:38:38.163Z,32.05
2023-04-28T08:38:49.745Z,32.06
2023-04-28T08:39:01.093Z,32.05
2023-04-28T08:39:13.743Z,32.03
2023-04-28T08:39:23.014Z,32.01
2023-04-28T08:39:34.582Z,32.01
2023-04-28T08:39:45.911Z,32.04
2023-04-28T08:39:57.490Z,32.04
2023-04-28T08:40:08.825Z,32.04
2023-04-28T08:40:20.489Z,32.02
2023-04-28T08:40:31.836Z,32.02
2023-04-28T08:40:43.419Z,32.03
2023-04-28T08:40:54.758Z,32.04
2023-04-28T08:41:06.357Z,32.03
2023-04-28T08:41:17.716Z,32.03
2023-04-28T08:41:29.294Z,32.03
2023-04-28T08:41:40.622Z,32.03
2023-04-28T08:41:52.236Z,32.02
2023-04-28T08:42:03.561Z,32.02
2023-04-28T08:42:15.147Z,32.03
2023-04-28T08:42:26.457Z,32.02
2023-04-28T08:42:38.098Z,32.03
2023-04-28T08:42:49.443Z,32.02
2023-04-28T08:43:01.024Z,32.03
2023-04-28T08:43:12.359Z,32.01
2023-04-28T08:43:23.941Z,32.01
2023-04-28T08:43:35.269Z,32.02
2023-04-28T08:43:46.859Z,32.04
2023-04-28T08:43:58.189Z,32.05
2023-04-28T08:44:09.813Z,32.02
2023-04-28T08:44:21.113Z,32.03
2023-04-28T08:44:32.696Z,32.02
2023-04-28T08:44:44.044Z,32.02
2023-04-28T08:44:55.628Z,32.03
2023-04-28T08:45:06.964Z,32.03
2023-04-28T08:45:18.545Z,31.99
2023-04-28T08:45:29.871Z,32.03
2023-04-28T08:45:41.479Z,32.01
2023-04-28T08:45:52.812Z,32.00
2023-04-28T08:46:04.425Z,32.00
2023-04-28T08:46:15.740Z,32.03
2023-04-28T08:46:27.370Z,32.02
2023-04-28T08:46:38.692Z,32.02
2023-04-28T08:46:50.327Z,32.02
2023-04-28T08:47:01.860Z,32.00
2023-04-28T08:47:13.634Z,32.03
2023-04-28T08:47:24.996Z,32.02
2023-04-28T08:47:36.635Z,32.02
2023-04-28T08:47:48.103Z,32.04
2023-04-28T08:47:59.733Z,32.02
2023-04-28T08:48:11.082Z,32.02
2023-04-28T08:48:22.857Z,32.02
2023-04-28T08:48:34.199Z,32.03
2023-04-28T08:48:45.899Z,32.02
2023-04-28T08:48:57.224Z,32.03
2023-04-28T08:49:08.809Z,31.99
2023-04-28T08:49:20.136Z,31.99
2023-04-28T08:49:31.717Z,31.99
2023-04-28T08:49:43.054Z,32.00
2023-04-28T08:49:54.623Z,31.99
2023-04-28T08:50:06.003Z,31.98
2023-04-28T08:50:17.579Z,31.98
2023-04-28T08:50:28.932Z,31.98
2023-04-28T08:50:40.503Z,31.97
2023-04-28T08:50:51.878Z,31.95
2023-04-28T08:51:03.457Z,31.97
2023-04-28T08:51:14.833Z,31.97
2023-04-28T08:51:26.434Z,31.94
2023-04-28T08:51:39.022Z,31.98
2023-04-28T08:51:49.346Z,32.03
2023-04-28T08:52:01.523Z,31.98
2023-04-28T08:52:13.215Z,31.93
2023-04-28T08:52:24.613Z,31.95
2023-04-28T08:52:36.280Z,31.94
2023-04-28T08:52:47.628Z,31.97
2023-04-28T08:52:59.198Z,31.95
2023-04-28T08:53:10.518Z,31.95
2023-04-28T08:53:22.123Z,31.95
2023-04-28T08:53:36.567Z,31.94
2023-04-28T08:54:11.598Z,32.05
2023-04-28T08:54:24.845Z,32.06
2023-04-28T08:54:26.570Z,32.07
2023-04-28T08:54:28.964Z,32.06
2023-04-28T08:54:33.595Z,32.05
2023-04-28T08:54:45.013Z,32.01
2023-04-28T08:54:56.654Z,31.97
2023-04-28T08:55:08.009Z,31.95
2023-04-28T08:55:19.585Z,31.95
2023-04-28T08:55:30.899Z,31.97
2023-04-28T08:55:42.508Z,31.95
2023-04-28T08:55:53.851Z,31.94
2023-04-28T08:56:05.437Z,31.95
2023-04-28T08:56:16.813Z,31.94
2023-04-28T08:56:28.392Z,31.94
2023-04-28T08:56:39.734Z,31.93
2023-04-28T08:56:51.320Z,31.93
2023-04-28T08:57:02.694Z,31.95
2023-04-28T08:57:14.311Z,31.95
2023-04-28T08:57:25.695Z,31.94
2023-04-28T08:57:37.976Z,31.95
2023-04-28T08:57:48.432Z,31.92
2023-04-28T08:58:00.021Z,31.96
2023-04-28T08:58:11.329Z,31.93
2023-04-28T08:58:22.908Z,31.91
2023-04-28T08:58:34.237Z,31.94
2023-04-28T08:58:45.832Z,31.94
2023-04-28T08:58:57.183Z,31.94
2023-04-28T08:59:08.796Z,31.94
2023-04-28T08:59:20.105Z,31.94
2023-04-28T08:59:31.715Z,31.93
2023-04-28T08:59:43.060Z,31.94
2023-04-28T08:59:54.638Z,31.94
2023-04-28T09:00:05.965Z,31.94
2023-04-28T09:00:17.548Z,31.95
2023-04-28T09:00:28.887Z,31.96
2023-04-28T09:00:40.450Z,31.93
2023-04-28T09:00:51.788Z,31.94
2023-04-28T09:01:03.363Z,31.94
2023-04-28T09:01:14.696Z,31.94
2023-04-28T09:01:26.300Z,31.95
2023-04-28T09:01:37.620Z,31.92
2023-04-28T09:01:49.212Z,31.94
2023-04-28T09:02:00.612Z,31.95
2023-04-28T09:02:12.349Z,31.93
2023-04-28T09:02:23.840Z,31.94
2023-04-28T09:02:35.683Z,31.95
2023-04-28T09:02:47.111Z,31.94
2023-04-28T09:02:58.858Z,31.95
2023-04-28T09:03:10.470Z,31.95
2023-04-28T09:03:22.321Z,31.94
2023-04-28T09:03:33.895Z,31.95
2023-04-28T09:03:45.729Z,31.95
2023-04-28T09:03:57.337Z,31.97
2023-04-28T09:04:10.706Z,31.93
2023-04-28T09:04:21.706Z,31.95
2023-04-28T09:04:31.669Z,31.99
2023-04-28T09:04:43.623Z,31.96
2023-04-28T09:04:55.821Z,31.89
2023-04-28T09:05:07.856Z,31.90
2023-04-28T09:05:19.839Z,31.88
2023-04-28T09:05:31.271Z,31.94
2023-04-28T09:05:43.007Z,31.94
2023-04-28T09:05:54.412Z,31.93
2023-04-28T09:06:06.034Z,31.93
2023-04-28T09:06:17.336Z,31.92
2023-04-28T09:06:28.931Z,31.92
2023-04-28T09:06:40.311Z,31.94
2023-04-28T09:06:51.922Z,31.93
2023-04-28T09:07:03.241Z,31.92
2023-04-28T09:07:14.831Z,31.94
2023-04-28T09:07:26.163Z,31.94
2023-04-28T09:07:37.773Z,31.92
2023-04-28T09:07:49.132Z,31.92
2023-04-28T09:08:00.677Z,31.91
2023-04-28T09:08:12.040Z,31.92
2023-04-28T09:08:23.639Z,31.92
2023-04-28T09:08:35.017Z,31.92
2023-04-28T09:08:46.645Z,31.93
2023-04-28T09:08:57.971Z,31.94
2023-04-28T09:09:09.578Z,31.94
2023-04-28T09:09:20.890Z,31.96
2023-04-28T09:09:35.019Z,31.94
2023-04-28T09:09:42.748Z,31.97
2023-04-28T09:09:54.062Z,31.94
2023-04-28T09:10:05.663Z,31.93
2023-04-28T09:10:16.974Z,31.94
2023-04-28T09:10:28.551Z,31.93
2023-04-28T09:10:39.899Z,31.94
2023-04-28T09:10:51.490Z,31.94
2023-04-28T09:11:02.815Z,31.95
2023-04-28T09:11:14.406Z,31.94
2023-04-28T09:11:25.743Z,31.93
2023-04-28T09:11:37.342Z,31.91
2023-04-28T09:11:48.676Z,31.93
2023-04-28T09:12:00.309Z,31.92
2023-04-28T09:12:11.599Z,31.92
2023-04-28T09:12:23.181Z,31.95
2023-04-28T09:12:34.506Z,31.93
2023-04-28T09:12:46.083Z,31.93
2023-04-28T09:12:57.424Z,31.94
2023-04-28T09:13:09.055Z,31.95
2023-04-28T09:13:20.359Z,31.94
2023-04-28T09:13:31.956Z,31.93
2023-04-28T09:13:43.326Z,31.94
2023-04-28T09:13:54.908Z,31.91
2023-04-28T09:14:06.242Z,31.95
2023-04-28T09:14:18.131Z,31.93
2023-04-28T09:14:29.964Z,31.90
2023-04-28T09:14:41.288Z,31.93
2023-04-28T09:14:52.884Z,31.92
2023-04-28T09:15:04.310Z,31.95
2023-04-28T09:15:15.917Z,31.94
2023-04-28T09:15:27.257Z,31.91
2023-04-28T09:15:38.867Z,31.93
2023-04-28T09:15:50.193Z,31.93
2023-04-28T09:16:01.809Z,31.94
2023-04-28T09:16:13.234Z,31.94
2023-04-28T09:16:24.811Z,31.92
2023-04-28T09:16:36.201Z,31.92
2023-04-28T09:16:47.832Z,31.92
2023-04-28T09:16:59.141Z,31.94
2023-04-28T09:17:10.735Z,31.93
2023-04-28T09:17:22.056Z,31.94
2023-04-28T09:17:33.700Z,31.93
2023-04-28T09:17:45.058Z,31.97
2023-04-28T09:17:56.667Z,31.95
2023-04-28T09:18:08.167Z,31.93
2023-04-28T09:18:19.859Z,31.92
2023-04-28T09:18:31.179Z,31.93
2023-04-28T09:18:42.750Z,31.94
2023-04-28T09:18:54.131Z,31.94
2023-04-28T09:19:05.721Z,31.94
2023-04-28T09:19:17.054Z,31.95
2023-04-28T09:19:28.666Z,31.92
2023-04-28T09:19:40.005Z,31.95
2023-04-28T09:19:51.589Z,31.92
2023-04-28T09:20:02.943Z,31.93
2023-04-28T09:20:14.551Z,31.93
2023-04-28T09:20:25.923Z,31.94
2023-04-28T09:20:37.488Z,31.92
2023-04-28T09:20:48.807Z,31.93
2023-04-28T09:21:01.850Z,31.91
2023-04-28T09:21:11.237Z,31.89
2023-04-28T09:21:22.796Z,31.91
2023-04-28T09:21:34.124Z,31.93
2023-04-28T09:21:45.711Z,31.92
2023-04-28T09:21:57.175Z,31.92
2023-04-28T09:22:24.673Z,31.92
2023-04-28T09:22:26.617Z,32.01
2023-04-28T09:22:32.795Z,32.03
2023-04-28T09:22:44.154Z,31.97
2023-04-28T09:22:55.869Z,31.93
2023-04-28T09:23:07.243Z,31.96
2023-04-28T09:23:18.804Z,31.94
2023-04-28T09:23:30.153Z,31.94
2023-04-28T09:23:41.763Z,31.94
2023-04-28T09:23:53.111Z,31.93
2023-04-28T09:24:04.724Z,31.92
2023-04-28T09:24:16.424Z,31.93
2023-04-28T09:24:28.251Z,31.93
2023-04-28T09:24:39.556Z,31.94
2023-04-28T09:24:51.154Z,31.92
2023-04-28T09:25:02.490Z,31.93
2023-04-28T09:25:14.098Z,31.93
2023-04-28T09:25:25.423Z,31.94
2023-04-28T09:25:37.005Z,31.91
2023-04-28T09:25:48.332Z,31.93
2023-04-28T09:25:59.940Z,31.93
2023-04-28T09:26:11.275Z,31.92
2023-04-28T09:26:22.856Z,31.93
2023-04-28T09:26:34.186Z,31.93
2023-04-28T09:26:45.798Z,31.92
2023-04-28T09:26:57.138Z,31.93
2023-04-28T09:27:08.728Z,31.93
2023-04-28T09:27:20.065Z,31.94
2023-04-28T09:27:31.649Z,31.92
2023-04-28T09:27:42.985Z,31.93
2023-04-28T09:27:54.593Z,31.93
2023-04-28T09:28:05.946Z,31.94
2023-04-28T09:28:17.541Z,31.93
2023-04-28T09:28:28.872Z,31.93
2023-04-28T09:28:40.489Z,31.93
2023-04-28T09:28:51.821Z,31.96
2023-04-28T09:29:03.418Z,31.93
2023-04-28T09:29:14.763Z,31.94
2023-04-28T09:29:26.310Z,31.93
2023-04-28T09:29:37.650Z,31.95
2023-04-28T09:29:49.232Z,31.92
2023-04-28T09:30:00.559Z,31.91
2023-04-28T09:30:12.145Z,31.93
2023-04-28T09:30:23.493Z,31.92
2023-04-28T09:30:35.077Z,31.93
2023-04-28T09:30:46.396Z,31.93
2023-04-28T09:30:57.982Z,31.92
2023-04-28T09:31:09.384Z,31.95
2023-04-28T09:31:20.984Z,31.93
2023-04-28T09:31:32.321Z,31.92
2023-04-28T09:31:43.899Z,31.93
2023-04-28T09:31:55.250Z,31.92
2023-04-28T09:32:06.896Z,31.93
2023-04-28T09:32:18.417Z,31.95
2023-04-28T09:32:30.279Z,31.92
2023-04-28T09:32:41.634Z,31.96
2023-04-28T09:32:53.206Z,31.93
2023-04-28T09:33:04.604Z,31.93
2023-04-28T09:33:16.298Z,31.94
2023-04-28T09:33:27.814Z,31.94
2023-04-28T09:33:39.414Z,31.93
2023-04-28T09:33:50.768Z,31.92
2023-04-28T09:34:02.362Z,31.95
2023-04-28T09:34:14.057Z,31.93
2023-04-28T09:34:25.757Z,31.93
2023-04-28T09:34:37.083Z,31.93
2023-04-28T09:34:48.682Z,31.93
2023-04-28T09:35:00.056Z,31.94
2023-04-28T09:35:11.616Z,31.93
2023-04-28T09:35:22.942Z,31.93
2023-04-28T09:35:34.550Z,31.92
2023-04-28T09:35:45.888Z,31.94
2023-04-28T09:35:57.471Z,31.93
2023-04-28T09:36:09.134Z,31.96
2023-04-28T09:36:20.745Z,31.91
2023-04-28T09:36:32.100Z,31.93
2023-04-28T09:36:43.685Z,31.95
2023-04-28T09:36:55.040Z,31.94
2023-04-28T09:37:06.628Z,31.92
2023-04-28T09:37:17.964Z,31.94
2023-04-28T09:37:29.559Z,31.93
2023-04-28T09:37:40.897Z,31.93
2023-04-28T09:37:52.480Z,31.96
2023-04-28T09:38:03.798Z,31.93
2023-04-28T09:38:15.380Z,31.91
2023-04-28T09:38:26.690Z,31.93
2023-04-28T09:38:38.276Z,31.94
2023-04-28T09:38:49.611Z,31.95
2023-04-28T09:39:01.194Z,31.94
2023-04-28T09:39:12.520Z,31.93
2023-04-28T09:39:24.117Z,31.94
2023-04-28T09:39:35.467Z,31.94
2023-04-28T09:39:47.036Z,31.95
2023-04-28T09:39:58.383Z,31.94
2023-04-28T09:40:09.997Z,31.94
2023-04-28T09:40:21.325Z,31.94
2023-04-28T09:40:32.917Z,31.94
2023-04-28T09:40:44.251Z,31.95
2023-04-28T09:40:55.863Z,31.96
2023-04-28T09:41:07.177Z,31.95
2023-04-28T09:41:18.757Z,31.95
2023-04-28T09:41:30.108Z,31.94
2023-04-28T09:41:41.715Z,31.93
2023-04-28T09:41:53.049Z,31.92
2023-04-28T09:42:04.683Z,31.94
2023-04-28T09:42:16.012Z,31.95
2023-04-28T09:42:27.610Z,31.93
2023-04-28T09:42:38.952Z,31.96
2023-04-28T09:42:50.545Z,31.95
2023-04-28T09:43:08.915Z,31.94
2023-04-28T09:43:21.629Z,32.10
2023-04-28T09:43:25.840Z,32.07
2023-04-28T09:43:37.162Z,32.00
2023-04-28T09:43:48.753Z,31.98
2023-04-28T09:44:00.134Z,31.97
2023-04-28T09:44:11.686Z,31.95
2023-04-28T09:44:23.036Z,31.96
2023-04-28T09:44:34.646Z,31.95
2023-04-28T09:44:45.955Z,31.96
2023-04-28T09:44:57.536Z,31.94
2023-04-28T09:45:08.861Z,31.93
2023-04-28T09:45:20.451Z,31.95
2023-04-28T09:45:31.781Z,31.95
2023-04-28T09:45:43.385Z,31.95
2023-04-28T09:45:54.713Z,31.96
2023-04-28T09:46:06.371Z,31.93
2023-04-28T09:46:17.782Z,31.96
2023-04-28T09:46:29.578Z,31.95
2023-04-28T09:46:40.911Z,31.95
2023-04-28T09:46:52.509Z,31.94
2023-04-28T09:47:03.841Z,31.96
2023-04-28T09:47:15.415Z,31.94
2023-04-28T09:47:26.778Z,31.94
2023-04-28T09:47:38.379Z,31.93
2023-04-28T09:47:49.787Z,31.93
2023-04-28T09:48:01.457Z,31.94
2023-04-28T09:48:12.809Z,31.93
2023-04-28T09:48:24.372Z,31.93
2023-04-28T09:48:35.716Z,31.92
2023-04-28T09:48:47.322Z,31.93
2023-04-28T09:48:58.651Z,31.93
2023-04-28T09:49:10.230Z,31.94
2023-04-28T09:49:21.562Z,31.93
2023-04-28T09:49:33.144Z,31.93
2023-04-28T09:49:44.496Z,31.93
2023-04-28T09:49:56.088Z,31.94
2023-04-28T09:50:07.418Z,31.94
2023-04-28T09:50:19.072Z,31.92
2023-04-28T09:50:30.376Z,31.93
2023-04-28T09:50:41.963Z,31.93
2023-04-28T09:50:53.328Z,31.95
2023-04-28T09:51:04.921Z,31.91
2023-04-28T09:51:16.254Z,31.94
2023-04-28T09:51:27.968Z,31.94
2023-04-28T09:51:39.284Z,31.93
2023-04-28T09:51:50.862Z,31.94
2023-04-28T09:52:02.191Z,31.92
2023-04-28T09:52:13.795Z,31.94
2023-04-28T09:52:25.131Z,31.95
2023-04-28T09:52:36.807Z,31.94
2023-04-28T09:52:48.142Z,31.93
2023-04-28T09:52:59.801Z,31.94
2023-04-28T09:53:11.117Z,31.93
2023-04-28T09:53:22.696Z,31.92
2023-04-28T09:53:34.037Z,31.93
2023-04-28T09:53:45.669Z,31.91
2023-04-28T09:53:56.995Z,31.93
2023-04-28T09:54:08.580Z,31.91
2023-04-28T09:54:19.934Z,31.94
2023-04-28T09:54:31.541Z,31.93
2023-04-28T09:54:42.854Z,31.92
2023-04-28T09:54:54.436Z,31.93
2023-04-28T09:55:05.826Z,31.95
2023-04-28T09:55:17.386Z,31.95
2023-04-28T09:55:28.738Z,31.93
2023-04-28T09:55:40.330Z,31.94
2023-04-28T09:55:51.660Z,31.92
2023-04-28T09:56:03.283Z,31.95
2023-04-28T09:56:14.586Z,31.92
2023-04-28T09:56:26.199Z,31.95
2023-04-28T09:56:37.517Z,31.95
2023-04-28T09:56:49.119Z,31.93
2023-04-28T09:57:00.462Z,31.94
2023-04-28T09:57:12.063Z,31.92
2023-04-28T09:57:23.397Z,31.93
2023-04-28T09:57:34.985Z,31.94
2023-04-28T09:57:47.946Z,31.94
2023-04-28T09:57:56.927Z,32.02
2023-04-28T09:58:08.248Z,31.98
2023-04-28T09:58:19.821Z,31.94
2023-04-28T09:58:31.173Z,31.94
2023-04-28T09:58:42.743Z,31.95
2023-04-28T09:58:54.101Z,31.94
2023-04-28T09:59:05.684Z,31.96
2023-04-28T09:59:17.006Z,31.93
2023-04-28T09:59:28.594Z,31.94
2023-04-28T09:59:39.934Z,31.94
2023-04-28T09:59:51.515Z,31.94
2023-04-28T10:00:02.838Z,31.90
2023-04-28T10:00:14.452Z,31.94
2023-04-28T10:00:25.792Z,31.95
2023-04-28T10:00:37.408Z,31.94
2023-04-28T10:00:48.740Z,31.94
2023-04-28T10:01:00.370Z,31.93
2023-04-28T10:01:11.986Z,31.93
2023-04-28T10:01:23.626Z,31.94
2023-04-28T10:01:35.011Z,31.95
2023-04-28T10:01:46.751Z,31.92
2023-04-28T10:01:58.103Z,31.95
2023-04-28T10:02:35.763Z,31.93
2023-04-28T10:02:42.715Z,32.00
2023-04-28T10:02:43.168Z,32.04
2023-04-28T10:02:45.833Z,32.04
2023-04-28T10:02:57.309Z,31.96
2023-04-28T10:03:09.044Z,31.93